Time;durP1;ratioP1;P1;durP2;ratioP2;P2;SDS_P1;SDS_P2;PMS_P1;PMS_P2;Temp;Humidity;BMP_temperature;BMP_pressure;BME280_temperature;BME280_humidity;BME280_pressure;Samples;Min_cycle;Max_cycle;Signal;HPM_P1;HPM_P2
2022/05/21 00:00:47;;;;;;;;;;;11.50;99.90;;;;;;4974984;28;20029;-66
2022/05/21 00:03:15;;;;;;;;;;;11.40;99.90;;;;;;4974626;28;19931;-66
2022/05/21 00:05:42;;;;;;;;;;;11.40;99.90;;;;;;4980761;28;20016;-66
2022/05/21 00:08:09;;;;;;;;;;;11.40;99.90;;;;;;4981462;28;19926;-66
2022/05/21 00:10:37;;;;;;;;;;;11.40;99.90;;;;;;4971792;28;20422;-66
2022/05/21 00:13:03;;;;;;;;;;;11.30;99.90;;;;;;4966822;28;19932;-66
2022/05/21 00:15:31;;;;;;;;;;;11.30;99.90;;;;;;5015143;28;19938;-66
2022/05/21 00:17:58;;;;;;;;;;;11.40;99.90;;;;;;4965365;28;19926;-66
2022/05/21 00:23:12;;;;;;;;;;;11.30;99.90;;;;;;4983320;28;20328;-65
2022/05/21 00:25:38;;;;;;;;;;;11.30;99.90;;;;;;4967895;28;19933;-66
2022/05/21 00:28:05;;;;;;;;;;;11.30;99.90;;;;;;5026090;28;19924;-65
2022/05/21 00:30:33;;;;;;;;;;;11.30;99.90;;;;;;4966588;28;19926;-65
2022/05/21 00:32:59;;;;;;;;;;;11.30;99.90;;;;;;4967826;28;19956;-66
2022/05/21 00:35:28;;;;;;;;;;;11.30;99.90;;;;;;5007475;28;19933;-66
2022/05/21 00:37:54;;;;;;;;;;;11.30;99.90;;;;;;5014228;28;19974;-66
2022/05/21 00:40:21;;;;;;;;;;;11.30;99.90;;;;;;4978509;28;20014;-66
2022/05/21 00:42:48;;;;;;;;;;;11.30;99.90;;;;;;4980989;28;20451;-66
2022/05/21 00:45:16;;;;;;;;;;;11.30;99.90;;;;;;4966540;28;19961;-66
2022/05/21 00:47:42;;;;;;;;;;;11.30;99.90;;;;;;4972978;28;19926;-66
2022/05/21 00:50:11;;;;;;;;;;;11.30;99.90;;;;;;4974254;28;19930;-66
2022/05/21 00:52:40;;;;;;;;;;;11.30;99.90;;;;;;4983467;28;20025;-66
2022/05/21 00:55:10;;;;;;;;;;;11.30;99.90;;;;;;4981155;28;19926;-65
2022/05/21 00:57:39;;;;;;;;;;;11.30;99.90;;;;;;4988162;28;19924;-66
2022/05/21 01:00:10;;;;;;;;;;;11.20;99.90;;;;;;4963277;28;19932;-66
2022/05/21 01:02:37;;;;;;;;;;;11.20;99.90;;;;;;4985081;28;20436;-65
2022/05/21 01:05:05;;;;;;;;;;;11.20;99.90;;;;;;4973010;28;19933;-65
2022/05/21 01:07:31;;;;;;;;;;;11.20;99.90;;;;;;4988983;28;19934;-65
2022/05/21 01:10:00;;;;;;;;;;;11.10;99.90;;;;;;4969328;28;20025;-66
2022/05/21 01:12:28;;;;;;;;;;;11.10;99.90;;;;;;4988431;28;20032;-66
2022/05/21 01:14:56;;;;;;;;;;;11.10;99.90;;;;;;4968164;28;19926;-66
2022/05/21 01:17:23;;;;;;;;;;;11.10;99.90;;;;;;4970264;28;19933;-66
2022/05/21 01:20:00;;;;;;;;;;;11.20;99.90;;;;;;4968974;28;19926;-66
2022/05/21 01:22:30;;;;;;;;;;;11.20;99.90;;;;;;4969891;28;20677;-66
2022/05/21 01:24:57;;;;;;;;;;;11.20;99.90;;;;;;4966263;28;19930;-66
2022/05/21 01:27:25;;;;;;;;;;;11.10;99.90;;;;;;4967466;28;19949;-66
2022/05/21 01:29:53;;;;;;;;;;;11.10;99.90;;;;;;4970971;28;19945;-66
2022/05/21 01:32:21;;;;;;;;;;;11.10;99.90;;;;;;4968467;28;19933;-66
2022/05/21 01:34:48;;;;;;;;;;;11.00;99.90;;;;;;4964967;28;19937;-66
2022/05/21 01:37:15;;;;;;;;;;;11.00;99.90;;;;;;4981994;28;19934;-66
2022/05/21 01:39:43;;;;;;;;;;;11.00;99.90;;;;;;4966130;28;19927;-66
2022/05/21 01:42:10;;;;;;;;;;;11.00;99.90;;;;;;4996842;28;19928;-65
2022/05/21 01:44:38;;;;;;;;;;;11.00;99.90;;;;;;4997066;28;19925;-67
2022/05/21 01:47:06;;;;;;;;;;;10.90;99.90;;;;;;4991324;28;19980;-66
2022/05/21 01:49:33;;;;;;;;;;;10.90;99.90;;;;;;4966927;28;19935;-66
2022/05/21 01:51:59;;;;;;;;;;;10.90;99.90;;;;;;5005664;28;19926;-66
2022/05/21 01:54:26;;;;;;;;;;;10.90;99.90;;;;;;4970930;28;20301;-66
2022/05/21 01:56:54;;;;;;;;;;;10.80;99.90;;;;;;4986588;28;19926;-66
2022/05/21 01:59:21;;;;;;;;;;;10.80;99.90;;;;;;5011426;28;19924;-66
2022/05/21 02:01:48;;;;;;;;;;;10.80;99.90;;;;;;4967370;28;19933;-66
2022/05/21 02:04:15;;;;;;;;;;;10.80;99.90;;;;;;4967127;28;20062;-66
2022/05/21 02:06:42;;;;;;;;;;;10.80;99.90;;;;;;5012420;28;19984;-65
2022/05/21 02:09:09;;;;;;;;;;;10.70;99.90;;;;;;5008968;28;19926;-65
2022/05/21 02:11:35;;;;;;;;;;;10.70;99.90;;;;;;4989597;28;19933;-65
2022/05/21 02:14:04;;;;;;;;;;;10.70;99.90;;;;;;4970965;28;19926;-65
2022/05/21 02:16:31;;;;;;;;;;;10.70;99.90;;;;;;4992702;28;20094;-65
2022/05/21 02:19:01;;;;;;;;;;;10.70;99.90;;;;;;4998493;28;20403;-65
2022/05/21 02:21:27;;;;;;;;;;;10.70;99.90;;;;;;4972307;28;19930;-65
2022/05/21 02:23:54;;;;;;;;;;;10.70;99.90;;;;;;4965960;28;20023;-65
2022/05/21 02:26:21;;;;;;;;;;;10.70;99.90;;;;;;4984148;28;19926;-65
2022/05/21 02:28:47;;;;;;;;;;;10.70;99.90;;;;;;4998885;28;19979;-65
2022/05/21 02:31:15;;;;;;;;;;;10.60;99.90;;;;;;4977885;28;19949;-65
2022/05/21 02:33:43;;;;;;;;;;;10.60;99.90;;;;;;4981730;28;19930;-65
2022/05/21 02:36:10;;;;;;;;;;;10.60;99.90;;;;;;4965039;28;19931;-66
2022/05/21 02:41:21;;;;;;;;;;;10.60;99.90;;;;;;4986298;28;19949;-66
2022/05/21 02:43:48;;;;;;;;;;;10.60;99.90;;;;;;4980153;28;19951;-66
2022/05/21 02:46:16;;;;;;;;;;;10.50;99.90;;;;;;4965707;28;19926;-65
2022/05/21 02:48:43;;;;;;;;;;;10.50;99.90;;;;;;4967401;28;19933;-65
2022/05/21 02:51:11;;;;;;;;;;;10.50;99.90;;;;;;4997333;28;19924;-66
2022/05/21 02:53:37;;;;;;;;;;;10.50;99.90;;;;;;4982916;28;20266;-66
2022/05/21 02:56:05;;;;;;;;;;;10.50;99.90;;;;;;4990146;28;19940;-66
2022/05/21 02:58:32;;;;;;;;;;;10.50;99.90;;;;;;4995433;28;19933;-66
2022/05/21 03:00:58;;;;;;;;;;;10.50;99.90;;;;;;4964440;28;19933;-66
2022/05/21 03:03:27;;;;;;;;;;;10.40;99.90;;;;;;4966452;28;19940;-66
2022/05/21 03:05:53;;;;;;;;;;;10.50;99.90;;;;;;4984160;28;19926;-66
2022/05/21 03:11:05;;;;;;;;;;;10.50;99.90;;;;;;4986809;28;19932;-66
2022/05/21 03:13:32;;;;;;;;;;;10.50;99.90;;;;;;5008252;28;19926;-66
2022/05/21 03:15:59;;;;;;;;;;;10.50;99.90;;;;;;4975183;28;20029;-65
2022/05/21 03:18:27;;;;;;;;;;;10.40;99.90;;;;;;4971053;28;19926;-66
2022/05/21 03:20:54;;;;;;;;;;;10.40;99.90;;;;;;4968949;28;19934;-65
2022/05/21 03:23:20;;;;;;;;;;;10.40;99.90;;;;;;4966765;28;20025;-66
2022/05/21 03:25:47;;;;;;;;;;;10.40;99.90;;;;;;5000183;28;19926;-65
2022/05/21 03:28:15;;;;;;;;;;;10.40;99.90;;;;;;4972736;28;20030;-66
2022/05/21 03:30:41;;;;;;;;;;;10.40;99.90;;;;;;4978106;28;19936;-66
2022/05/21 03:33:08;;;;;;;;;;;10.40;99.90;;;;;;4976465;28;20028;-67
2022/05/21 03:35:36;;;;;;;;;;;10.30;99.90;;;;;;4983290;28;19926;-66
2022/05/21 03:38:04;;;;;;;;;;;10.30;99.90;;;;;;4969253;28;20331;-67
2022/05/21 03:40:31;;;;;;;;;;;10.30;99.90;;;;;;4974794;28;19926;-66
2022/05/21 03:42:58;;;;;;;;;;;10.30;99.90;;;;;;4966656;28;20036;-65
2022/05/21 03:45:25;;;;;;;;;;;10.30;99.90;;;;;;5027296;28;20286;-65
2022/05/21 03:47:52;;;;;;;;;;;10.30;99.90;;;;;;4972151;28;19950;-65
2022/05/21 03:50:20;;;;;;;;;;;10.30;99.90;;;;;;4980926;28;20021;-66
2022/05/21 03:52:48;;;;;;;;;;;10.30;99.90;;;;;;4991096;28;19944;-66
2022/05/21 03:55:14;;;;;;;;;;;10.30;99.90;;;;;;4968809;28;19932;-66
2022/05/21 03:57:41;;;;;;;;;;;10.30;99.90;;;;;;4975691;28;19926;-67
2022/05/21 04:00:10;;;;;;;;;;;10.30;99.90;;;;;;4976065;28;20298;-65
2022/05/21 04:02:37;;;;;;;;;;;10.40;99.90;;;;;;4972328;28;19926;-65
2022/05/21 04:05:04;;;;;;;;;;;10.50;99.90;;;;;;5000580;28;19982;-64
2022/05/21 04:07:31;;;;;;;;;;;10.50;99.90;;;;;;4979459;28;20290;-66
2022/05/21 04:09:59;;;;;;;;;;;10.60;99.90;;;;;;4973170;28;20385;-65
2022/05/21 04:12:25;;;;;;;;;;;10.60;99.90;;;;;;5020107;28;20290;-66
2022/05/21 04:14:52;;;;;;;;;;;10.70;99.90;;;;;;4996543;28;20608;-66
2022/05/21 04:17:19;;;;;;;;;;;10.70;99.90;;;;;;4972906;28;19936;-67
2022/05/21 04:19:45;;;;;;;;;;;10.80;99.90;;;;;;4970787;28;19969;-66
2022/05/21 04:22:12;;;;;;;;;;;10.90;99.90;;;;;;4976732;28;20302;-66
2022/05/21 04:24:39;;;;;;;;;;;11.00;99.90;;;;;;4979492;28;19934;-66
2022/05/21 04:27:08;;;;;;;;;;;11.00;99.90;;;;;;4978185;28;20067;-66
2022/05/21 04:29:35;;;;;;;;;;;11.00;99.90;;;;;;5010678;28;19936;-66
2022/05/21 04:32:01;;;;;;;;;;;11.00;99.90;;;;;;5005737;28;19933;-66
2022/05/21 04:34:28;;;;;;;;;;;11.10;99.90;;;;;;4996174;28;19932;-66
2022/05/21 04:36:55;;;;;;;;;;;11.10;99.90;;;;;;4979549;28;20062;-66
2022/05/21 04:39:21;;;;;;;;;;;11.20;99.90;;;;;;5004998;28;20226;-66
2022/05/21 04:41:48;;;;;;;;;;;11.20;99.90;;;;;;4967335;28;19932;-66
2022/05/21 04:44:16;;;;;;;;;;;11.20;99.90;;;;;;4989522;28;19930;-66
2022/05/21 04:46:43;;;;;;;;;;;11.20;99.90;;;;;;4998825;28;19931;-66
2022/05/21 04:49:10;;;;;;;;;;;11.30;99.90;;;;;;4978672;28;19972;-66
2022/05/21 04:51:38;;;;;;;;;;;11.40;99.90;;;;;;4984691;28;19927;-67
2022/05/21 04:54:05;;;;;;;;;;;11.40;99.90;;;;;;4977306;28;19932;-65
2022/05/21 04:56:33;;;;;;;;;;;11.50;99.90;;;;;;4971085;28;19930;-67
2022/05/21 04:58:59;;;;;;;;;;;11.50;99.90;;;;;;4964718;28;19937;-67
2022/05/21 05:01:30;;;;;;;;;;;11.60;99.90;;;;;;4965703;28;19933;-66
2022/05/21 05:03:56;;;;;;;;;;;11.60;99.90;;;;;;4966264;28;19965;-67
2022/05/21 05:06:23;;;;;;;;;;;11.80;99.90;;;;;;5000059;28;19930;-66
2022/05/21 05:08:50;;;;;;;;;;;11.90;99.90;;;;;;4995270;28;19934;-65
2022/05/21 05:11:17;;;;;;;;;;;12.00;99.90;;;;;;4975053;28;19932;-66
2022/05/21 05:13:45;;;;;;;;;;;12.00;99.90;;;;;;5005693;28;19931;-65
2022/05/21 05:16:12;;;;;;;;;;;12.10;99.90;;;;;;4968290;28;20018;-66
2022/05/21 05:18:40;;;;;;;;;;;12.20;99.90;;;;;;4970995;28;20409;-65
2022/05/21 05:21:07;;;;;;;;;;;12.30;99.90;;;;;;5002955;28;19932;-66
2022/05/21 05:23:34;;;;;;;;;;;12.30;99.90;;;;;;4977387;28;20021;-66
2022/05/21 05:26:00;;;;;;;;;;;12.30;99.90;;;;;;4980120;28;19969;-67
2022/05/21 05:28:27;;;;;;;;;;;12.40;99.90;;;;;;4979594;28;19937;-66
2022/05/21 05:30:54;;;;;;;;;;;12.60;99.90;;;;;;4974596;28;19936;-66
2022/05/21 05:33:22;;;;;;;;;;;12.70;99.90;;;;;;4965763;28;19958;-67
2022/05/21 05:35:52;;;;;;;;;;;12.90;99.90;;;;;;5027511;28;19963;-66
2022/05/21 05:38:19;;;;;;;;;;;13.00;99.90;;;;;;4969024;28;19981;-67
2022/05/21 05:40:47;;;;;;;;;;;12.90;99.90;;;;;;5048964;28;20367;-66
2022/05/21 05:43:14;;;;;;;;;;;12.90;99.90;;;;;;4989333;28;19930;-66
2022/05/21 05:45:41;;;;;;;;;;;12.90;99.90;;;;;;4991339;28;19924;-66
2022/05/21 05:48:08;;;;;;;;;;;13.00;99.90;;;;;;4969889;28;19932;-66
2022/05/21 05:50:34;;;;;;;;;;;13.00;99.90;;;;;;5043985;28;19931;-67
2022/05/21 05:53:03;;;;;;;;;;;13.00;99.90;;;;;;5010229;28;19924;-67
2022/05/21 05:55:30;;;;;;;;;;;13.00;99.90;;;;;;4962991;28;19926;-66
2022/05/21 05:57:57;;;;;;;;;;;13.10;99.90;;;;;;4975140;28;19926;-66
2022/05/21 06:00:23;;;;;;;;;;;13.40;99.90;;;;;;4974970;28;19930;-66
2022/05/21 06:03:02;;;;;;;;;;;14.00;99.90;;;;;;4995510;28;19945;-66
2022/05/21 06:05:30;;;;;;;;;;;14.70;99.90;;;;;;4969325;28;19926;-66
2022/05/21 06:07:58;;;;;;;;;;;16.20;99.90;;;;;;4986958;28;19932;-64
2022/05/21 06:10:27;;;;;;;;;;;17.10;99.90;;;;;;5003945;28;20159;-65
2022/05/21 06:12:53;;;;;;;;;;;17.90;99.90;;;;;;4963374;28;19937;-64
2022/05/21 06:15:20;;;;;;;;;;;17.60;98.90;;;;;;4971678;28;20026;-66
2022/05/21 06:17:49;;;;;;;;;;;17.40;99.00;;;;;;4967036;28;19931;-65
2022/05/21 06:20:17;;;;;;;;;;;17.70;98.70;;;;;;4973286;28;19933;-66
2022/05/21 06:22:45;;;;;;;;;;;16.80;99.90;;;;;;4968748;28;20304;-66
2022/05/21 06:25:17;;;;;;;;;;;16.40;99.90;;;;;;4976822;28;19988;-66
2022/05/21 06:27:46;;;;;;;;;;;15.90;99.90;;;;;;4968846;28;20383;-66
2022/05/21 06:30:12;;;;;;;;;;;15.90;99.90;;;;;;4973362;28;19926;-65
2022/05/21 06:32:39;;;;;;;;;;;15.60;99.90;;;;;;4971084;28;20024;-65
2022/05/21 06:35:06;;;;;;;;;;;15.70;99.90;;;;;;4975014;28;20316;-65
2022/05/21 06:37:33;;;;;;;;;;;15.90;99.90;;;;;;4966785;28;19948;-65
2022/05/21 06:40:00;;;;;;;;;;;15.90;99.90;;;;;;4970017;28;19933;-66
2022/05/21 06:42:26;;;;;;;;;;;15.70;99.90;;;;;;4971167;28;20020;-66
2022/05/21 06:44:54;;;;;;;;;;;15.50;99.90;;;;;;4966717;28;19933;-66
2022/05/21 06:47:21;;;;;;;;;;;15.40;99.90;;;;;;4972709;28;20042;-66
2022/05/21 06:49:48;;;;;;;;;;;15.70;99.90;;;;;;4985835;28;19930;-67
2022/05/21 06:52:15;;;;;;;;;;;16.40;99.90;;;;;;5029012;28;20030;-66
2022/05/21 06:54:41;;;;;;;;;;;16.30;99.90;;;;;;4979402;28;19934;-66
2022/05/21 06:57:10;;;;;;;;;;;16.20;99.90;;;;;;4987421;28;20020;-65
2022/05/21 06:59:37;;;;;;;;;;;16.80;99.90;;;;;;4974974;28;20392;-64
2022/05/21 07:02:05;;;;;;;;;;;18.00;97.40;;;;;;4966513;28;19930;-65
2022/05/21 07:07:35;;;;;;;;;;;17.20;97.10;;;;;;4972333;28;20019;-65
2022/05/21 07:10:03;;;;;;;;;;;16.80;98.60;;;;;;4971205;28;20035;-66
2022/05/21 07:12:30;;;;;;;;;;;16.50;98.90;;;;;;4975143;28;20385;-64
2022/05/21 07:14:57;;;;;;;;;;;16.50;99.70;;;;;;4955128;28;20503;-64
2022/05/21 07:17:25;;;;;;;;;;;16.90;99.50;;;;;;4974579;28;19926;-64
2022/05/21 07:19:52;;;;;;;;;;;16.70;98.10;;;;;;4983208;28;19942;-66
2022/05/21 07:22:19;;;;;;;;;;;17.20;98.40;;;;;;4970477;28;19931;-65
2022/05/21 07:24:46;;;;;;;;;;;18.30;95.60;;;;;;5004374;28;20353;-64
2022/05/21 07:27:13;;;;;;;;;;;18.60;93.30;;;;;;5012579;28;19933;-64
2022/05/21 07:29:40;;;;;;;;;;;18.90;91.80;;;;;;4967183;28;20454;-64
2022/05/21 07:32:07;;;;;;;;;;;18.30;91.40;;;;;;4967420;28;19961;-63
2022/05/21 07:34:35;;;;;;;;;;;17.80;92.90;;;;;;4965401;28;20389;-65
2022/05/21 07:37:02;;;;;;;;;;;17.20;93.30;;;;;;4966228;28;19965;-64
2022/05/21 07:39:28;;;;;;;;;;;17.00;94.90;;;;;;4964466;28;20436;-64
2022/05/21 07:41:55;;;;;;;;;;;17.00;95.10;;;;;;4963239;28;19926;-65
2022/05/21 07:44:21;;;;;;;;;;;17.20;95.20;;;;;;4964812;28;19926;-66
2022/05/21 07:46:48;;;;;;;;;;;17.90;93.70;;;;;;4966489;28;20037;-65
2022/05/21 07:49:15;;;;;;;;;;;19.00;92.20;;;;;;4964227;28;20396;-66
2022/05/21 07:51:43;;;;;;;;;;;20.00;85.70;;;;;;4962213;28;19934;-65
2022/05/21 07:54:10;;;;;;;;;;;20.30;80.40;;;;;;4963182;28;19974;-66
2022/05/21 07:56:36;;;;;;;;;;;20.60;76.10;;;;;;4964389;28;20424;-66
2022/05/21 07:59:03;;;;;;;;;;;19.70;75.90;;;;;;4957493;28;19938;-66
2022/05/21 08:01:30;;;;;;;;;;;18.50;80.90;;;;;;4966001;28;19931;-66
2022/05/21 08:03:56;;;;;;;;;;;17.60;87.40;;;;;;4958422;28;20267;-64
2022/05/21 08:06:23;;;;;;;;;;;17.10;90.80;;;;;;4961636;28;20460;-63
2022/05/21 08:08:54;;;;;;;;;;;16.80;92.20;;;;;;4964434;28;19935;-63
2022/05/21 08:11:21;;;;;;;;;;;16.70;93.30;;;;;;4966307;28;20246;-65
2022/05/21 08:13:47;;;;;;;;;;;16.90;93.50;;;;;;4954546;28;19931;-65
2022/05/21 08:16:15;;;;;;;;;;;16.90;93.20;;;;;;4969013;28;20296;-64
2022/05/21 08:18:43;;;;;;;;;;;17.00;93.10;;;;;;4962283;28;19934;-64
2022/05/21 08:21:10;;;;;;;;;;;17.20;93.60;;;;;;4969241;28;19930;-64
2022/05/21 08:29:18;;;;;;;;;;;20.30;73.60;;;;;;4910658;28;20461;-62
2022/05/21 08:31:45;;;;;;;;;;;19.40;76.90;;;;;;4954848;28;20304;-64
2022/05/21 08:34:11;;;;;;;;;;;20.50;76.00;;;;;;4969479;28;20332;-64
2022/05/21 08:36:38;;;;;;;;;;;20.50;66.90;;;;;;4967783;28;20062;-63
2022/05/21 08:39:05;;;;;;;;;;;19.70;69.50;;;;;;4968949;28;19926;-63
2022/05/21 08:41:35;;;;;;;;;;;19.30;69.30;;;;;;4962931;28;20009;-62
2022/05/21 08:44:03;;;;;;;;;;;19.40;72.20;;;;;;4960499;28;20046;-64
2022/05/21 08:46:38;;;;;;;;;;;20.00;70.10;;;;;;4957348;28;20385;-64
2022/05/21 08:49:06;;;;;;;;;;;20.40;69.20;;;;;;4959150;28;19932;-64
2022/05/21 08:51:35;;;;;;;;;;;20.40;67.30;;;;;;4966655;28;20282;-64
2022/05/21 08:54:03;;;;;;;;;;;20.60;65.40;;;;;;4966559;28;19926;-65
2022/05/21 08:56:30;;;;;;;;;;;21.60;59.40;;;;;;4967822;28;19937;-64
2022/05/21 08:59:01;;;;;;;;;;;22.20;57.10;;;;;;4967444;28;20025;-64
2022/05/21 09:01:28;;;;;;;;;;;21.80;55.70;;;;;;4968868;28;19978;-63
2022/05/21 09:03:56;;;;;;;;;;;22.40;49.50;;;;;;4963875;28;19926;-65
2022/05/21 09:06:29;;;;;;;;;;;23.60;47.70;;;;;;4967527;28;20349;-65
2022/05/21 09:08:59;;;;;;;;;;;21.80;46.20;;;;;;4965504;28;19957;-66
2022/05/21 09:11:31;;;;;;;;;;;21.60;53.30;;;;;;4961495;28;20411;-65
2022/05/21 09:14:01;;;;;;;;;;;22.40;49.00;;;;;;4967217;28;19930;-65
2022/05/21 09:19:11;;;;;;;;;;;22.40;44.60;;;;;;4965436;28;19933;-66
2022/05/21 09:21:40;;;;;;;;;;;22.60;42.70;;;;;;4964214;28;20020;-65
2022/05/21 09:24:08;;;;;;;;;;;22.70;44.40;;;;;;4966480;28;19934;-65
2022/05/21 09:26:45;;;;;;;;;;;23.90;39.70;;;;;;4969168;28;19933;-66
2022/05/21 09:29:18;;;;;;;;;;;24.10;37.70;;;;;;4966161;28;19932;-65
2022/05/21 09:31:45;;;;;;;;;;;23.60;39.60;;;;;;4960447;28;19979;-65
2022/05/21 09:34:13;;;;;;;;;;;23.80;36.70;;;;;;4963845;28;20013;-65
2022/05/21 09:36:40;;;;;;;;;;;24.60;36.40;;;;;;4963706;28;19938;-65
2022/05/21 09:39:07;;;;;;;;;;;24.40;33.30;;;;;;4968379;28;19930;-65
2022/05/21 09:41:33;;;;;;;;;;;23.60;34.30;;;;;;4969806;28;20001;-65
2022/05/21 09:47:08;;;;;;;;;;;21.10;39.30;;;;;;4962856;28;20023;-64
2022/05/21 09:49:35;;;;;;;;;;;21.90;37.30;;;;;;4966628;28;19927;-65
2022/05/21 09:52:03;;;;;;;;;;;23.00;36.00;;;;;;4967950;28;19926;-65
2022/05/21 09:54:34;;;;;;;;;;;23.60;33.60;;;;;;4966962;28;19926;-65
2022/05/21 09:57:01;;;;;;;;;;;23.60;33.40;;;;;;4964434;28;19965;-66
2022/05/21 09:59:28;;;;;;;;;;;23.30;33.20;;;;;;4966000;28;19930;-66
2022/05/21 10:02:01;;;;;;;;;;;23.30;31.00;;;;;;4966285;28;20304;-65
2022/05/21 10:04:31;;;;;;;;;;;22.00;33.50;;;;;;4965514;28;19974;-65
2022/05/21 10:07:03;;;;;;;;;;;22.10;35.70;;;;;;4963713;28;19926;-65
2022/05/21 10:12:18;;;;;;;;;;;20.90;36.70;;;;;;4969067;28;20463;-65
2022/05/21 10:14:48;;;;;;;;;;;20.30;38.30;;;;;;4964168;28;19937;-65
2022/05/21 10:17:19;;;;;;;;;;;20.20;41.50;;;;;;4967200;28;19926;-64
2022/05/21 10:19:53;;;;;;;;;;;20.30;41.00;;;;;;4959563;28;19980;-64
2022/05/21 10:22:26;;;;;;;;;;;20.60;42.00;;;;;;4962450;28;19976;-63
2022/05/21 10:25:03;;;;;;;;;;;20.50;39.30;;;;;;4963385;28;20385;-63
2022/05/21 10:27:44;;;;;;;;;;;19.60;39.80;;;;;;4960333;28;19941;-64
2022/05/21 10:30:13;;;;;;;;;;;19.80;41.20;;;;;;4950455;28;20037;-64
2022/05/21 10:32:58;;;;;;;;;;;20.40;39.30;;;;;;4957735;28;19956;-65
2022/05/21 10:35:35;;;;;;;;;;;20.70;39.60;;;;;;4962921;28;19926;-64
2022/05/21 10:38:06;;;;;;;;;;;20.40;40.30;;;;;;4959490;28;19926;-64
2022/05/21 10:40:36;;;;;;;;;;;20.50;39.20;;;;;;4962596;28;19926;-64
2022/05/21 10:43:07;;;;;;;;;;;20.70;38.00;;;;;;4958670;28;20322;-65
2022/05/21 10:45:38;;;;;;;;;;;21.00;38.70;;;;;;4961409;28;19940;-64
2022/05/21 10:48:14;;;;;;;;;;;21.00;35.20;;;;;;4959418;28;20296;-64
2022/05/21 10:50:47;;;;;;;;;;;20.60;37.90;;;;;;4962222;28;19934;-65
2022/05/21 10:53:27;;;;;;;;;;;20.40;36.80;;;;;;4956694;28;19987;-65
2022/05/21 10:55:59;;;;;;;;;;;20.50;36.30;;;;;;4955054;28;19934;-65
2022/05/21 10:58:32;;;;;;;;;;;20.10;36.50;;;;;;4956529;28;20316;-65
2022/05/21 11:01:03;;;;;;;;;;;19.90;38.70;;;;;;4952968;28;19941;-64
2022/05/21 11:03:37;;;;;;;;;;;20.10;39.70;;;;;;4957848;28;19926;-64
2022/05/21 11:06:10;;;;;;;;;;;20.20;38.90;;;;;;4960303;28;19926;-63
2022/05/21 11:08:41;;;;;;;;;;;20.30;36.40;;;;;;4961098;28;19927;-65
2022/05/21 11:11:11;;;;;;;;;;;20.60;36.50;;;;;;4962356;28;19926;-65
2022/05/21 11:13:38;;;;;;;;;;;20.60;36.00;;;;;;4965126;28;19934;-64
2022/05/21 11:16:10;;;;;;;;;;;20.40;36.00;;;;;;4959934;28;19926;-64
2022/05/21 11:18:38;;;;;;;;;;;20.20;35.30;;;;;;4959843;28;19934;-65
2022/05/21 11:21:09;;;;;;;;;;;20.20;35.20;;;;;;4965733;28;20025;-65
2022/05/21 11:23:45;;;;;;;;;;;20.40;33.40;;;;;;4959604;28;19933;-63
2022/05/21 11:26:23;;;;;;;;;;;20.50;34.20;;;;;;4961884;28;19927;-66
2022/05/21 11:28:52;;;;;;;;;;;20.80;33.40;;;;;;4949212;28;19977;-63
2022/05/21 11:37:19;;;;;;;;;;;20.90;32.50;;;;;;4956538;28;19957;-64
2022/05/21 11:39:39;;;;;;;;;;;20.30;33.50;;;;;;4959839;28;19971;-64
2022/05/21 11:42:12;;;;;;;;;;;20.50;35.30;;;;;;4964051;28;19926;-65
2022/05/21 11:44:58;;;;;;;;;;;20.70;34.40;;;;;;4966421;28;19930;-64
2022/05/21 11:47:38;;;;;;;;;;;20.50;34.00;;;;;;4975493;28;20037;-64
2022/05/21 11:50:10;;;;;;;;;;;20.70;34.40;;;;;;4963844;28;19926;-64
2022/05/21 11:53:04;;;;;;;;;;;20.80;34.10;;;;;;4968543;28;19941;-64
2022/05/21 11:55:53;;;;;;;;;;;20.70;32.30;;;;;;4963349;28;19949;-64
2022/05/21 11:58:25;;;;;;;;;;;20.70;32.50;;;;;;4968302;28;20017;-64
2022/05/21 12:00:51;;;;;;;;;;;20.40;31.20;;;;;;4969380;28;19926;-64
2022/05/21 12:03:25;;;;;;;;;;;20.40;32.50;;;;;;4967786;28;20047;-64
2022/05/21 12:06:06;;;;;;;;;;;20.30;33.30;;;;;;4966250;28;19969;-64
2022/05/21 12:08:36;;;;;;;;;;;20.60;32.30;;;;;;4960628;28;19934;-64
2022/05/21 12:11:08;;;;;;;;;;;20.90;32.30;;;;;;4967983;28;20401;-63
2022/05/21 12:13:52;;;;;;;;;;;20.60;31.40;;;;;;4965407;28;19926;-64
2022/05/21 12:16:38;;;;;;;;;;;20.60;31.80;;;;;;4964301;28;19934;-65
2022/05/21 12:19:07;;;;;;;;;;;20.70;31.20;;;;;;4967723;28;19949;-64
2022/05/21 12:21:52;;;;;;;;;;;20.70;32.40;;;;;;4968906;28;19927;-64
2022/05/21 12:24:36;;;;;;;;;;;20.60;31.80;;;;;;4961217;28;19926;-64
2022/05/21 12:27:06;;;;;;;;;;;20.70;32.90;;;;;;4964010;28;19932;-64
2022/05/21 12:29:41;;;;;;;;;;;20.70;34.00;;;;;;4959793;28;20404;-62
2022/05/21 12:32:13;;;;;;;;;;;20.90;35.40;;;;;;4968196;28;19984;-64
2022/05/21 12:35:02;;;;;;;;;;;21.40;32.70;;;;;;4967903;28;20350;-63
2022/05/21 12:37:30;;;;;;;;;;;21.20;32.60;;;;;;4959579;28;19927;-62
2022/05/21 12:40:02;;;;;;;;;;;21.00;31.80;;;;;;4967732;28;19941;-63
2022/05/21 12:42:35;;;;;;;;;;;20.90;34.10;;;;;;4964483;28;19932;-63
2022/05/21 12:45:02;;;;;;;;;;;20.80;33.20;;;;;;4965801;28;19952;-62
2022/05/21 12:47:30;;;;;;;;;;;20.80;32.50;;;;;;4961669;28;19926;-64
2022/05/21 12:49:57;;;;;;;;;;;21.20;31.90;;;;;;4966864;28;19936;-62
2022/05/21 12:52:25;;;;;;;;;;;21.10;30.00;;;;;;4966782;28;19926;-62
2022/05/21 12:55:07;;;;;;;;;;;21.10;29.30;;;;;;4967508;28;19966;-63
2022/05/21 12:57:35;;;;;;;;;;;20.90;29.70;;;;;;4962290;28;20405;-63
2022/05/21 13:00:04;;;;;;;;;;;21.00;30.00;;;;;;4961751;28;19934;-62
2022/05/21 13:02:39;;;;;;;;;;;21.20;28.70;;;;;;4968682;28;19933;-63
2022/05/21 13:05:07;;;;;;;;;;;21.70;28.40;;;;;;4967583;28;19930;-64
2022/05/21 13:07:37;;;;;;;;;;;22.00;29.10;;;;;;4969227;28;19926;-64
2022/05/21 13:10:06;;;;;;;;;;;22.20;28.70;;;;;;4966837;28;19972;-64
2022/05/21 13:12:38;;;;;;;;;;;22.50;28.60;;;;;;4967951;28;19941;-64
2022/05/21 13:15:09;;;;;;;;;;;22.60;29.10;;;;;;4959392;28;19933;-63
2022/05/21 13:17:41;;;;;;;;;;;22.70;28.10;;;;;;4966442;28;19926;-64
2022/05/21 13:20:11;;;;;;;;;;;22.90;27.00;;;;;;4961080;28;20920;-64
2022/05/21 13:22:50;;;;;;;;;;;22.70;28.40;;;;;;4962567;28;19930;-63
2022/05/21 13:25:17;;;;;;;;;;;22.40;28.10;;;;;;4967862;28;20017;-64
2022/05/21 13:27:45;;;;;;;;;;;22.00;27.60;;;;;;4965714;28;19926;-64
2022/05/21 13:30:15;;;;;;;;;;;21.70;28.90;;;;;;4964087;28;20347;-64
2022/05/21 13:32:42;;;;;;;;;;;22.10;28.60;;;;;;4964967;28;20369;-66
2022/05/21 13:35:20;;;;;;;;;;;22.60;26.40;;;;;;4963462;28;19973;-64
2022/05/21 13:37:49;;;;;;;;;;;22.30;26.60;;;;;;4960955;28;19931;-64
2022/05/21 13:40:18;;;;;;;;;;;22.20;27.10;;;;;;4962986;28;20026;-64
2022/05/21 13:42:46;;;;;;;;;;;21.70;28.90;;;;;;4968348;28;20026;-64
2022/05/21 13:45:16;;;;;;;;;;;21.50;29.60;;;;;;4958741;28;19992;-65
2022/05/21 13:47:46;;;;;;;;;;;21.60;29.60;;;;;;4958671;28;20029;-65
2022/05/21 13:50:13;;;;;;;;;;;22.00;29.40;;;;;;4961763;28;19973;-65
2022/05/21 13:52:40;;;;;;;;;;;22.30;27.60;;;;;;4968316;28;19960;-64
2022/05/21 13:55:07;;;;;;;;;;;22.40;28.60;;;;;;4965532;28;20385;-64
2022/05/21 13:57:35;;;;;;;;;;;22.60;27.90;;;;;;4968455;28;20385;-63
2022/05/21 14:00:04;;;;;;;;;;;23.00;26.50;;;;;;4967165;28;19933;-63
2022/05/21 14:02:35;;;;;;;;;;;22.90;26.40;;;;;;4961829;28;20293;-63
2022/05/21 14:05:16;;;;;;;;;;;22.10;26.90;;;;;;4981310;28;20301;-64
2022/05/21 14:07:48;;;;;;;;;;;21.60;27.30;;;;;;4962322;28;19973;-63
2022/05/21 14:10:14;;;;;;;;;;;21.50;27.90;;;;;;4964762;28;19930;-63
2022/05/21 14:12:44;;;;;;;;;;;21.60;29.20;;;;;;4967063;28;19926;-64
2022/05/21 14:15:13;;;;;;;;;;;22.30;28.10;;;;;;4962274;28;20475;-64
2022/05/21 14:17:42;;;;;;;;;;;22.50;25.50;;;;;;4964690;28;19936;-64
2022/05/21 14:20:22;;;;;;;;;;;22.00;25.50;;;;;;4962260;28;19930;-63
2022/05/21 14:22:50;;;;;;;;;;;21.60;25.50;;;;;;4968326;28;20456;-64
2022/05/21 14:25:34;;;;;;;;;;;21.60;26.30;;;;;;4966380;28;20297;-63
2022/05/21 14:28:21;;;;;;;;;;;22.00;27.70;;;;;;4966304;28;19930;-64
2022/05/21 14:30:49;;;;;;;;;;;22.20;25.90;;;;;;4963636;28;19926;-63
2022/05/21 14:33:24;;;;;;;;;;;22.10;24.00;;;;;;4962504;28;19926;-63
2022/05/21 14:35:51;;;;;;;;;;;22.00;25.20;;;;;;4963605;28;20448;-63
2022/05/21 14:38:20;;;;;;;;;;;21.90;24.20;;;;;;4961255;28;20005;-63
2022/05/21 14:40:49;;;;;;;;;;;21.80;25.40;;;;;;4967893;28;20026;-63
2022/05/21 14:43:21;;;;;;;;;;;22.00;25.40;;;;;;4962803;28;21972;-63
2022/05/21 14:45:48;;;;;;;;;;;21.90;22.40;;;;;;4965212;28;20312;-63
2022/05/21 14:48:13;;;;;;;;;;;21.80;22.50;;;;;;4954471;28;20355;-63
2022/05/21 14:53:27;;;;;;;;;;;22.20;22.80;;;;;;4964146;28;19933;-63
2022/05/21 14:55:54;;;;;;;;;;;22.40;22.70;;;;;;4963176;28;19997;-64
2022/05/21 14:58:21;;;;;;;;;;;22.50;23.40;;;;;;4960236;28;19927;-63
2022/05/21 15:00:48;;;;;;;;;;;22.60;21.70;;;;;;4969705;28;20468;-65